createdAt,value
2023-01-17T00:00:06.249Z,15.9
2023-01-17T00:01:09.009Z,15.8
2023-01-17T00:02:11.305Z,15.9
2023-01-17T00:03:13.622Z,15.9
2023-01-17T00:04:15.563Z,15.9
2023-01-17T00:05:18.077Z,15.9
2023-01-17T00:06:20.617Z,15.9
2023-01-17T00:07:22.866Z,15.9
2023-01-17T00:08:25.402Z,16
2023-01-17T00:09:27.920Z,15.9
2023-01-17T00:10:30.152Z,15.9
2023-01-17T00:11:32.669Z,15.9
2023-01-17T00:12:34.918Z,15.9
2023-01-17T00:13:37.425Z,16.1
2023-01-17T00:14:39.939Z,16.1
2023-01-17T00:15:42.285Z,16.1
2023-01-17T00:16:44.968Z,16
2023-01-17T00:17:47.499Z,15.9
2023-01-17T00:18:50.180Z,16.1
2023-01-17T00:19:52.703Z,16
2023-01-17T00:20:55.218Z,16
2023-01-17T00:21:57.465Z,16.1
2023-01-17T00:22:59.787Z,16
2023-01-17T00:24:02.279Z,16
2023-01-17T00:25:04.770Z,16.1
2023-01-17T00:26:07.272Z,16
2023-01-17T00:27:09.521Z,16
2023-01-17T00:28:11.775Z,16
2023-01-17T00:29:13.991Z,15.9
2023-01-17T00:30:16.492Z,16.1
2023-01-17T00:31:18.899Z,16.1
2023-01-17T00:32:21.208Z,16.1
2023-01-17T00:33:23.751Z,16
2023-01-17T00:34:26.315Z,16
2023-01-17T00:35:28.828Z,16
2023-01-17T00:36:31.357Z,16
2023-01-17T00:37:33.610Z,16
2023-01-17T00:38:36.123Z,16.2
2023-01-17T00:39:38.412Z,16.1
2023-01-17T00:40:40.353Z,16.2
2023-01-17T00:41:42.618Z,16.1
2023-01-17T00:42:44.529Z,16.1
2023-01-17T00:43:47.042Z,16.1
2023-01-17T00:44:49.605Z,16.1
2023-01-17T00:45:51.826Z,16.1
2023-01-17T00:46:54.539Z,16.1
2023-01-17T00:47:57.264Z,16
2023-01-17T00:48:59.506Z,16.1
2023-01-17T00:50:02.103Z,16.2
2023-01-17T00:51:04.613Z,16.1
2023-01-17T00:52:06.557Z,16.2
2023-01-17T00:53:08.834Z,16.1
2023-01-17T00:54:11.443Z,16
2023-01-17T00:55:13.946Z,16.2
2023-01-17T00:56:16.152Z,16.2
2023-01-17T00:57:18.416Z,16
2023-01-17T00:58:20.613Z,16.1
2023-01-17T00:59:23.114Z,16.1
2023-01-17T01:00:25.067Z,16.1
2023-01-17T01:01:27.642Z,16.2
2023-01-17T01:02:30.595Z,16.1
2023-01-17T01:03:33.297Z,16.1
2023-01-17T01:04:35.810Z,16.2
2023-01-17T01:05:38.118Z,16.1
2023-01-17T01:06:40.619Z,16.2
2023-01-17T01:07:42.852Z,16.2
2023-01-17T01:08:45.103Z,16.2
2023-01-17T01:09:47.625Z,16.2
2023-01-17T01:10:50.156Z,16.2
2023-01-17T01:11:52.700Z,16.2
2023-01-17T01:12:55.194Z,16.1
2023-01-17T01:13:57.429Z,16.2
2023-01-17T01:14:59.646Z,16.2
2023-01-17T01:16:01.904Z,16.1
2023-01-17T01:17:04.209Z,16.2
2023-01-17T01:18:06.181Z,16.1
2023-01-17T01:19:08.711Z,16.3
2023-01-17T01:20:10.988Z,16.2
2023-01-17T01:21:13.596Z,16.2
2023-01-17T01:22:16.113Z,16.2
2023-01-17T01:23:18.618Z,16.2
2023-01-17T01:24:21.118Z,16.2
2023-01-17T01:25:23.339Z,16.2
2023-01-17T01:26:25.587Z,16.2
2023-01-17T01:27:28.085Z,16.2
2023-01-17T01:28:30.643Z,16.2
2023-01-17T01:29:32.354Z,16.2
2023-01-17T01:30:34.867Z,16.2
2023-01-17T01:31:37.438Z,16.1
2023-01-17T01:32:40.241Z,16.2
2023-01-17T01:33:42.514Z,16.3
2023-01-17T01:34:45.054Z,16.2
2023-01-17T01:35:47.617Z,16.3
2023-01-17T01:36:50.195Z,16.2
2023-01-17T01:37:52.771Z,16.2
2023-01-17T01:38:55.096Z,16.2
2023-01-17T01:39:57.310Z,16.2
2023-01-17T01:40:59.838Z,16.2
2023-01-17T01:42:02.348Z,16.2
2023-01-17T01:43:04.839Z,16.2
2023-01-17T01:44:07.339Z,16.1
2023-01-17T01:45:09.542Z,16.2
2023-01-17T01:46:11.765Z,16.2
2023-01-17T01:47:13.999Z,16.2
2023-01-17T01:48:15.958Z,16.2
2023-01-17T01:49:18.536Z,16.2
2023-01-17T01:50:21.103Z,16.3
2023-01-17T01:51:23.623Z,16.3
2023-01-17T01:52:26.245Z,16.2
2023-01-17T01:53:28.626Z,16.2
2023-01-17T01:54:30.925Z,16.3
2023-01-17T01:55:33.167Z,16.2
2023-01-17T01:56:35.116Z,16.2
2023-01-17T01:57:37.609Z,16.2
2023-01-17T01:58:40.121Z,16.3
2023-01-17T01:59:42.073Z,16.2
2023-01-17T02:00:44.478Z,16.3
2023-01-17T02:01:47.692Z,16.3
2023-01-17T02:02:50.790Z,16.3
2023-01-17T02:03:53.058Z,16.3
2023-01-17T02:04:55.793Z,16.3
2023-01-17T02:05:58.271Z,16.2
2023-01-17T02:07:00.819Z,16.3
2023-01-17T02:08:03.412Z,16.3
2023-01-17T02:09:05.908Z,16.2
2023-01-17T02:10:08.417Z,16.2
2023-01-17T02:11:10.362Z,16.2
2023-01-17T02:12:12.884Z,16.2
2023-01-17T02:13:15.135Z,16.3
2023-01-17T02:14:17.123Z,16.3
2023-01-17T02:15:19.696Z,16.3
2023-01-17T02:16:22.449Z,16.3
2023-01-17T02:17:25.222Z,16.2
2023-01-17T02:18:27.421Z,16.3
2023-01-17T02:19:29.651Z,16.3
2023-01-17T02:20:32.174Z,16.3
2023-01-17T02:21:34.720Z,16.3
2023-01-17T02:22:37.252Z,16.3
2023-01-17T02:23:39.836Z,16.3
2023-01-17T02:24:42.068Z,16.3
2023-01-17T02:25:44.549Z,16.3
2023-01-17T02:26:46.760Z,16.2
2023-01-17T02:27:49.013Z,16.2
2023-01-17T02:28:51.517Z,16.3
2023-01-17T02:29:54.025Z,16.3
2023-01-17T02:30:56.635Z,16.3
2023-01-17T02:31:59.154Z,16.2
2023-01-17T02:33:01.390Z,16.2
2023-01-17T02:34:03.623Z,16.3
2023-01-17T02:35:05.848Z,16.2
2023-01-17T02:36:08.401Z,16.3
2023-01-17T02:37:10.730Z,16.3
2023-01-17T02:38:13.045Z,16.3
2023-01-17T02:39:15.634Z,16.2
2023-01-17T02:40:17.859Z,16.2
2023-01-17T02:41:20.364Z,16.2
2023-01-17T02:42:22.915Z,16.3
2023-01-17T02:43:25.145Z,16.3
2023-01-17T02:44:27.392Z,16.3
2023-01-17T02:45:30.043Z,16.3
2023-01-17T02:46:32.470Z,16.3
2023-01-17T02:47:34.984Z,16.3
2023-01-17T02:48:37.484Z,16.3
2023-01-17T02:49:39.986Z,16.4
2023-01-17T02:50:42.508Z,16.4
2023-01-17T02:51:44.469Z,16.3
2023-01-17T02:52:46.972Z,16.3
2023-01-17T02:53:49.482Z,16.3
2023-01-17T02:54:52.063Z,16.2
2023-01-17T02:55:54.264Z,16.4
2023-01-17T02:56:56.774Z,16.3
2023-01-17T02:57:59.292Z,16.3
2023-01-17T02:59:01.544Z,16.3
2023-01-17T03:00:04.060Z,16.4
2023-01-17T03:01:06.847Z,16.2
2023-01-17T03:02:10.417Z,16.3
2023-01-17T03:03:13.424Z,16.3
2023-01-17T03:04:15.405Z,16.3
2023-01-17T03:06:22.609Z,16.3
2023-01-17T03:07:25.186Z,16.3
2023-01-17T03:08:27.714Z,16.3
2023-01-17T03:09:30.268Z,16.3
2023-01-17T03:10:32.871Z,16.3
2023-01-17T03:11:35.400Z,16.4
2023-01-17T03:12:37.997Z,16.3
2023-01-17T03:13:40.547Z,16.4
2023-01-17T03:14:42.803Z,16.3
2023-01-17T03:15:45.312Z,16.3
2023-01-17T03:16:47.960Z,16.4
2023-01-17T03:17:50.723Z,16.3
2023-01-17T03:18:52.972Z,16.3
2023-01-17T03:19:55.509Z,16.3
2023-01-17T03:20:58.012Z,16.2
2023-01-17T03:22:00.506Z,16.3
2023-01-17T03:23:03.043Z,16.3
2023-01-17T03:24:05.532Z,16.3
2023-01-17T03:25:08.075Z,16.3
2023-01-17T03:26:10.676Z,16.3
2023-01-17T03:27:13.163Z,16.3
2023-01-17T03:28:15.675Z,16.3
2023-01-17T03:29:18.171Z,16.2
2023-01-17T03:30:20.406Z,16.3
2023-01-17T03:31:22.879Z,16.3
2023-01-17T03:32:25.370Z,16.2
2023-01-17T03:33:27.597Z,16.3
2023-01-17T03:34:30.114Z,16.3
2023-01-17T03:35:32.373Z,16.3
2023-01-17T03:36:34.597Z,16.3
2023-01-17T03:37:37.141Z,16.4
2023-01-17T03:38:39.729Z,16.3
2023-01-17T03:39:42.249Z,16.3
2023-01-17T03:40:44.857Z,16.3
2023-01-17T03:41:47.505Z,16.4
2023-01-17T03:42:50.008Z,16.4
2023-01-17T03:43:52.229Z,16.3
2023-01-17T03:44:54.430Z,16.3
2023-01-17T03:45:57.144Z,16.3
2023-01-17T03:46:59.872Z,16.3
2023-01-17T03:48:02.441Z,16.3
2023-01-17T03:49:04.771Z,16.2
2023-01-17T03:50:07.258Z,16.3
2023-01-17T03:51:09.204Z,16.3
2023-01-17T03:52:11.160Z,16.3
2023-01-17T03:53:13.382Z,16.2
2023-01-17T03:54:15.680Z,16.3
2023-01-17T03:55:18.181Z,16.3
2023-01-17T03:56:20.703Z,16.4
2023-01-17T03:57:23.310Z,16.4
2023-01-17T03:58:25.595Z,16.3
2023-01-17T03:59:28.104Z,16.4
2023-01-17T04:00:30.342Z,16.4
2023-01-17T04:01:33.148Z,16.3
2023-01-17T04:02:36.314Z,16.3
2023-01-17T04:03:38.766Z,16.4
2023-01-17T04:04:40.997Z,16.4
2023-01-17T04:05:43.508Z,16.3
2023-01-17T04:06:46.016Z,16.3
2023-01-17T04:07:48.544Z,16.4
2023-01-17T04:08:52.218Z,16.3
2023-01-17T04:09:54.762Z,16.3
2023-01-17T04:10:57.071Z,16.3
2023-01-17T04:11:59.656Z,16.2
2023-01-17T04:13:02.417Z,16.3
2023-01-17T04:14:04.951Z,16.3
2023-01-17T04:15:07.446Z,16.2
2023-01-17T04:16:09.978Z,16.2
2023-01-17T04:17:12.485Z,16.2
2023-01-17T04:18:14.981Z,16.2
2023-01-17T04:19:17.492Z,16.3
2023-01-17T04:20:19.701Z,16.2
2023-01-17T04:21:22.215Z,16.2
2023-01-17T04:22:24.734Z,16.2
2023-01-17T04:23:26.960Z,16.3
2023-01-17T04:24:29.449Z,16.2
2023-01-17T04:25:32.003Z,16.3
2023-01-17T04:26:34.254Z,16.2
2023-01-17T04:27:36.504Z,16.2
2023-01-17T04:28:39.093Z,16.2
2023-01-17T04:29:41.603Z,16.2
2023-01-17T04:30:46.418Z,16.2
2023-01-17T04:31:49.510Z,16.2
2023-01-17T04:32:52.037Z,16.2
2023-01-17T04:33:54.271Z,16.2
2023-01-17T04:34:56.772Z,16.2
2023-01-17T04:35:59.104Z,16.3
2023-01-17T04:37:01.654Z,16.2
2023-01-17T04:38:04.158Z,16.2
2023-01-17T04:39:06.455Z,16.2
2023-01-17T04:40:08.956Z,16.2
2023-01-17T04:41:11.525Z,16.2
2023-01-17T04:42:13.474Z,16.3
2023-01-17T04:43:15.758Z,16.2
2023-01-17T04:44:18.351Z,16.2
2023-01-17T04:45:20.849Z,16.2
2023-01-17T04:46:23.407Z,16.2
2023-01-17T04:47:25.904Z,16.2
2023-01-17T04:48:28.388Z,16.1
2023-01-17T04:49:30.898Z,16.2
2023-01-17T04:50:33.395Z,16.3
2023-01-17T04:51:35.639Z,16.2
2023-01-17T04:52:38.195Z,16.1
2023-01-17T04:53:40.455Z,16.2
2023-01-17T04:54:42.969Z,16.2
2023-01-17T04:55:45.460Z,16.2
2023-01-17T04:56:47.710Z,16.1
2023-01-17T04:57:50.226Z,16.1
2023-01-17T04:58:52.765Z,16.2
2023-01-17T04:59:55.347Z,16.1
2023-01-17T05:00:57.685Z,16.2
2023-01-17T05:02:00.089Z,16.2
2023-01-17T05:03:02.855Z,16.2
2023-01-17T05:04:05.352Z,16.2
2023-01-17T05:05:07.893Z,16.1
2023-01-17T05:06:10.379Z,16.1
2023-01-17T05:07:12.927Z,16.1
2023-01-17T05:08:15.418Z,16.1
2023-01-17T05:09:17.947Z,16.2
2023-01-17T05:10:20.463Z,16.2
2023-01-17T05:11:22.987Z,16.2
2023-01-17T05:12:25.219Z,16.2
2023-01-17T05:13:27.454Z,16.1
2023-01-17T05:14:30.009Z,16.1
2023-01-17T05:15:32.445Z,16.1
2023-01-17T05:16:34.893Z,16.1
2023-01-17T05:17:37.394Z,16.1
2023-01-17T05:18:39.892Z,16.2
2023-01-17T05:19:42.392Z,16.1
2023-01-17T05:20:44.643Z,16
2023-01-17T05:21:47.174Z,16.2
2023-01-17T05:22:49.682Z,16.1
2023-01-17T05:23:52.197Z,16.1
2023-01-17T05:24:54.716Z,16.2
2023-01-17T05:25:56.937Z,16.2
2023-01-17T05:26:59.485Z,16.2
2023-01-17T05:28:02.043Z,16.1
2023-01-17T05:29:04.292Z,16.1
2023-01-17T05:30:06.585Z,16.1
2023-01-17T05:31:09.041Z,16.2
2023-01-17T05:32:11.563Z,16.2
2023-01-17T05:33:14.077Z,16
2023-01-17T05:34:16.585Z,16.2
2023-01-17T05:35:18.528Z,16.1
2023-01-17T05:36:21.784Z,16
2023-01-17T05:37:24.303Z,16.2
2023-01-17T05:38:26.509Z,16.1
2023-01-17T05:39:28.763Z,16.1
2023-01-17T05:40:30.994Z,16.1
2023-01-17T05:41:33.296Z,16.1
2023-01-17T05:42:35.524Z,16.1
2023-01-17T05:43:38.070Z,16.1
2023-01-17T05:44:40.302Z,16.1
2023-01-17T05:45:42.943Z,16.1
2023-01-17T05:46:45.518Z,16
2023-01-17T05:47:47.492Z,16.2
2023-01-17T05:48:49.717Z,16.1
2023-01-17T05:49:52.227Z,16.1
2023-01-17T05:50:54.725Z,16.2
2023-01-17T05:51:56.960Z,16.1
2023-01-17T05:52:59.470Z,16.1
2023-01-17T05:54:02.012Z,16.1
2023-01-17T05:55:04.245Z,16.1
2023-01-17T05:56:06.468Z,16
2023-01-17T05:57:08.974Z,16.1
2023-01-17T05:58:11.560Z,16.1
2023-01-17T05:59:16.189Z,16.1
2023-01-17T06:00:20.417Z,16.1
2023-01-17T06:01:22.732Z,16
2023-01-17T06:02:25.564Z,16.1
2023-01-17T06:03:28.253Z,16
2023-01-17T06:04:30.937Z,16.2
2023-01-17T06:05:33.581Z,16.1
2023-01-17T06:06:35.553Z,16.1
2023-01-17T06:07:38.071Z,16
2023-01-17T06:08:40.606Z,16.1
2023-01-17T06:09:43.106Z,16.2
2023-01-17T06:10:45.055Z,15.9
2023-01-17T06:11:47.581Z,16.1
2023-01-17T06:12:50.124Z,16.1
2023-01-17T06:13:52.607Z,16.1
2023-01-17T06:14:54.890Z,16.1
2023-01-17T06:15:56.987Z,16
2023-01-17T06:16:59.055Z,16.1
2023-01-17T06:18:01.622Z,16.1
2023-01-17T06:19:04.123Z,16.1
2023-01-17T06:20:06.380Z,16.2
2023-01-17T06:21:08.623Z,16
2023-01-17T06:22:10.874Z,16.1
2023-01-17T06:23:13.394Z,16.1
2023-01-17T06:24:15.997Z,16
2023-01-17T06:25:18.492Z,16
2023-01-17T06:26:21.013Z,15.9
2023-01-17T06:27:23.535Z,15.9
2023-01-17T06:28:25.763Z,16.1
2023-01-17T06:29:28.315Z,16.1
2023-01-17T06:30:30.854Z,16.1
2023-01-17T06:31:33.436Z,16.1
2023-01-17T06:32:36.071Z,16
2023-01-17T06:33:38.736Z,16
2023-01-17T06:34:41.295Z,16.1
2023-01-17T06:35:43.812Z,16.2
2023-01-17T06:36:46.299Z,16.1
2023-01-17T06:37:48.519Z,16
2023-01-17T06:38:50.450Z,16.1
2023-01-17T06:39:52.692Z,16.1
2023-01-17T06:40:55.194Z,16.1
2023-01-17T06:41:57.728Z,16.1
2023-01-17T06:43:00.016Z,16.1
2023-01-17T06:44:02.316Z,16.1
2023-01-17T06:45:04.813Z,16
2023-01-17T06:46:07.381Z,16.1
2023-01-17T06:47:09.325Z,16
2023-01-17T06:48:11.806Z,16.1
2023-01-17T06:49:14.441Z,16.2
2023-01-17T06:50:16.728Z,16.1
2023-01-17T06:51:18.982Z,16.1
2023-01-17T06:52:21.484Z,16
2023-01-17T06:53:23.728Z,16
2023-01-17T06:54:25.698Z,16
2023-01-17T06:55:27.970Z,16.1
2023-01-17T06:56:30.522Z,16
2023-01-17T06:57:33.064Z,15.9
2023-01-17T06:58:35.010Z,16.2
2023-01-17T06:59:37.276Z,16
2023-01-17T07:00:41.463Z,16.1
2023-01-17T07:01:44.351Z,16.1
2023-01-17T07:02:47.144Z,16.1
2023-01-17T07:03:49.986Z,16.1
2023-01-17T07:04:52.581Z,16.1
2023-01-17T07:05:54.886Z,16
2023-01-17T07:06:57.406Z,16.1
2023-01-17T07:07:59.364Z,16.1
2023-01-17T07:09:01.917Z,16
2023-01-17T07:10:04.214Z,16.1
2023-01-17T07:11:06.448Z,16.1
2023-01-17T07:12:09.037Z,16
2023-01-17T07:13:11.004Z,16.1
2023-01-17T07:14:13.263Z,16
2023-01-17T07:15:15.502Z,16.1
2023-01-17T07:16:17.931Z,16.1
2023-01-17T07:17:20.364Z,15.9
2023-01-17T07:18:22.603Z,16
2023-01-17T07:19:24.914Z,16
2023-01-17T07:20:27.621Z,16.1
2023-01-17T07:21:30.097Z,16.1
2023-01-17T07:22:32.073Z,16
2023-01-17T07:23:34.619Z,16.1
2023-01-17T07:24:36.928Z,16
2023-01-17T07:25:39.532Z,16.1
2023-01-17T07:26:41.773Z,16
2023-01-17T07:27:44.039Z,16.1
2023-01-17T07:28:46.302Z,15.9
2023-01-17T07:29:48.817Z,16.1
2023-01-17T07:30:51.464Z,15.9
2023-01-17T07:31:53.978Z,16.1
2023-01-17T07:32:56.291Z,16.1
2023-01-17T07:33:58.522Z,16.1
2023-01-17T07:35:00.811Z,16
2023-01-17T07:36:03.427Z,16
2023-01-17T07:37:05.397Z,16
2023-01-17T07:38:07.937Z,16.1
2023-01-17T07:39:09.935Z,15.8
2023-01-17T07:40:12.465Z,16
2023-01-17T07:41:15.037Z,16.1
2023-01-17T07:42:17.560Z,16
2023-01-17T07:43:19.833Z,16
2023-01-17T07:44:22.094Z,16
2023-01-17T07:45:24.386Z,16
2023-01-17T07:46:26.742Z,16
2023-01-17T07:47:29.446Z,16.1
2023-01-17T07:48:31.990Z,16
2023-01-17T07:49:34.531Z,16.1
2023-01-17T07:50:36.507Z,16.1
2023-01-17T07:51:39.129Z,16.1
2023-01-17T07:52:41.367Z,16
2023-01-17T07:53:43.613Z,16
2023-01-17T07:54:45.568Z,16
2023-01-17T07:55:47.844Z,16.2
2023-01-17T07:56:49.807Z,16
2023-01-17T07:57:52.340Z,16
2023-01-17T07:58:54.706Z,16
2023-01-17T07:59:57.248Z,16
2023-01-17T08:00:59.703Z,16.1
2023-01-17T08:02:03.001Z,15.9
2023-01-17T08:03:05.650Z,16
2023-01-17T08:04:08.371Z,16
2023-01-17T08:05:11.205Z,16.1
2023-01-17T08:06:13.499Z,15.9
2023-01-17T08:07:16.165Z,15.9
2023-01-17T08:08:18.718Z,16
2023-01-17T08:09:20.978Z,16.1
2023-01-17T08:10:23.281Z,15.9
2023-01-17T08:11:25.621Z,16
2023-01-17T08:12:28.230Z,16
2023-01-17T08:13:30.537Z,16
2023-01-17T08:14:33.056Z,16.1
2023-01-17T08:15:35.313Z,15.9
2023-01-17T08:16:38.013Z,15.9
2023-01-17T08:17:39.864Z,15.9
2023-01-17T08:18:42.391Z,16
2023-01-17T08:19:45.033Z,16
2023-01-17T08:20:47.063Z,16
2023-01-17T08:21:49.078Z,16.1
2023-01-17T08:22:51.808Z,15.9
2023-01-17T08:23:54.123Z,16
2023-01-17T08:24:56.652Z,16
2023-01-17T08:25:59.225Z,15.9
2023-01-17T08:27:01.733Z,16
2023-01-17T08:28:03.695Z,15.9
2023-01-17T08:29:05.676Z,16.1
2023-01-17T08:30:08.229Z,16
2023-01-17T08:31:10.868Z,16.1
2023-01-17T08:32:13.359Z,16
2023-01-17T08:33:15.935Z,16
2023-01-17T08:34:18.533Z,16
2023-01-17T08:35:21.115Z,15.9
2023-01-17T08:36:23.426Z,16
2023-01-17T08:37:25.433Z,16.2
2023-01-17T08:38:28.044Z,16
2023-01-17T08:39:30.354Z,16
2023-01-17T08:40:32.880Z,16.1
2023-01-17T08:41:34.871Z,15.8
2023-01-17T08:42:37.398Z,15.9
2023-01-17T08:43:39.352Z,16
2023-01-17T08:44:41.885Z,16
2023-01-17T08:45:44.067Z,16.1
2023-01-17T08:46:46.710Z,15.9
2023-01-17T08:47:49.007Z,16.1
2023-01-17T08:48:51.784Z,15.9
2023-01-17T08:49:54.291Z,15.9
2023-01-17T08:50:56.838Z,16
2023-01-17T08:51:58.834Z,16
2023-01-17T08:53:01.941Z,16
2023-01-17T08:54:04.547Z,15.9
2023-01-17T08:55:07.073Z,16
2023-01-17T08:56:09.602Z,16
2023-01-17T08:57:11.828Z,16
2023-01-17T08:58:13.781Z,16
2023-01-17T08:59:16.079Z,16.1
2023-01-17T09:00:18.645Z,16
2023-01-17T09:01:21.423Z,15.9
2023-01-17T09:02:24.511Z,15.9
2023-01-17T09:03:26.532Z,16
2023-01-17T09:04:28.637Z,15.9
2023-01-17T09:05:31.394Z,16
2023-01-17T09:06:33.966Z,16
2023-01-17T09:07:35.978Z,16
2023-01-17T09:08:38.564Z,15.9
2023-01-17T09:09:41.180Z,16
2023-01-17T09:10:43.795Z,16
2023-01-17T09:11:46.300Z,15.9
2023-01-17T09:12:48.519Z,15.9
2023-01-17T09:13:50.745Z,16
2023-01-17T09:14:53.030Z,16
2023-01-17T09:15:55.559Z,15.9
2023-01-17T09:16:57.789Z,15.8
2023-01-17T09:18:00.019Z,15.9
2023-01-17T09:19:02.266Z,16
2023-01-17T09:20:04.509Z,16
2023-01-17T09:21:06.473Z,15.8
2023-01-17T09:22:09.021Z,15.9
2023-01-17T09:23:11.768Z,15.8
2023-01-17T09:24:14.335Z,15.9
2023-01-17T09:25:16.946Z,15.9
2023-01-17T09:26:19.457Z,15.9
2023-01-17T09:27:21.822Z,15.9
2023-01-17T09:28:24.384Z,15.9
2023-01-17T09:29:26.624Z,15.8
2023-01-17T09:30:29.280Z,16
2023-01-17T09:31:31.591Z,15.9
2023-01-17T09:32:33.858Z,16
2023-01-17T09:33:36.025Z,15.9
2023-01-17T09:34:38.285Z,15.8
2023-01-17T09:35:40.834Z,15.9
2023-01-17T09:36:42.793Z,16
2023-01-17T09:37:45.068Z,15.9
2023-01-17T09:38:47.577Z,15.9
2023-01-17T09:39:49.934Z,16
2023-01-17T09:40:52.758Z,16
2023-01-17T09:41:55.013Z,15.9
2023-01-17T09:42:57.687Z,16
2023-01-17T09:43:59.728Z,15.8
2023-01-17T09:45:01.698Z,15.9
2023-01-17T09:46:03.780Z,15.8
2023-01-17T09:47:06.743Z,16
2023-01-17T09:48:09.218Z,15.9
2023-01-17T09:49:11.777Z,15.8
2023-01-17T09:50:14.023Z,15.9
2023-01-17T09:51:16.268Z,16
2023-01-17T09:52:18.787Z,15.9
2023-01-17T09:53:21.088Z,15.8
2023-01-17T09:54:23.382Z,15.9
2023-01-17T09:55:25.702Z,15.9
2023-01-17T09:56:28.382Z,15.9
2023-01-17T09:57:30.667Z,16
2023-01-17T09:58:33.172Z,15.9
2023-01-17T09:59:36.467Z,16
2023-01-17T10:00:39.012Z,16
2023-01-17T10:01:41.978Z,16
2023-01-17T10:02:45.314Z,16
2023-01-17T10:03:48.932Z,15.9
2023-01-17T10:04:52.119Z,15.9
2023-01-17T10:05:54.626Z,15.8
2023-01-17T10:06:56.858Z,15.9
2023-01-17T10:07:59.403Z,15.9
2023-01-17T10:09:05.657Z,16
2023-01-17T10:10:08.173Z,15.8
2023-01-17T10:11:10.717Z,16
2023-01-17T10:12:13.362Z,16
2023-01-17T10:13:15.875Z,15.9
2023-01-17T10:14:18.390Z,15.9
2023-01-17T10:15:20.875Z,15.8
2023-01-17T10:16:23.167Z,15.9
2023-01-17T10:17:25.565Z,15.8
2023-01-17T10:19:33.055Z,16
2023-01-17T10:20:35.279Z,16
2023-01-17T10:21:37.535Z,15.9
2023-01-17T10:22:39.779Z,15.8
2023-01-17T10:23:42.287Z,16
2023-01-17T10:24:44.858Z,15.8
2023-01-17T10:25:46.834Z,15.9
2023-01-17T10:26:49.085Z,16
2023-01-17T10:27:51.662Z,16
2023-01-17T10:28:53.950Z,15.8
2023-01-17T10:29:55.960Z,15.9
2023-01-17T10:30:58.366Z,15.9
2023-01-17T10:32:00.930Z,15.9
2023-01-17T10:33:03.519Z,15.9
2023-01-17T10:34:06.065Z,15.9
2023-01-17T10:35:08.061Z,15.9
2023-01-17T10:36:10.380Z,15.9
2023-01-17T10:37:12.732Z,16
2023-01-17T10:38:15.278Z,15.8
2023-01-17T10:39:17.804Z,15.9
2023-01-17T10:40:20.333Z,16
2023-01-17T10:41:22.671Z,16
2023-01-17T10:42:24.968Z,16
2023-01-17T10:43:27.336Z,15.9
2023-01-17T10:44:29.883Z,16
2023-01-17T10:45:32.124Z,15.9
2023-01-17T10:46:34.680Z,15.8
2023-01-17T10:47:36.643Z,15.8
2023-01-17T10:48:38.642Z,15.9
2023-01-17T10:49:40.696Z,15.9
2023-01-17T10:50:43.224Z,15.9
2023-01-17T10:51:45.758Z,16
2023-01-17T10:52:48.309Z,15.9
2023-01-17T10:53:50.579Z,15.9
2023-01-17T10:54:52.834Z,15.9
2023-01-17T10:55:55.408Z,16
2023-01-17T10:56:57.920Z,15.9
2023-01-17T10:58:00.474Z,15.9
2023-01-17T10:59:03.264Z,16
2023-01-17T11:00:05.796Z,15.9
2023-01-17T11:01:08.585Z,15.9
2023-01-17T11:02:11.823Z,15.9
2023-01-17T11:03:14.460Z,15.8
2023-01-17T11:04:16.764Z,15.8
2023-01-17T11:05:19.041Z,15.8
2023-01-17T11:06:21.312Z,15.9
2023-01-17T11:07:23.566Z,15.9
2023-01-17T11:08:25.556Z,15.8
2023-01-17T11:09:28.074Z,16
2023-01-17T11:10:30.578Z,15.9
2023-01-17T11:11:33.144Z,16
2023-01-17T11:12:35.687Z,15.9
2023-01-17T11:13:38.270Z,15.8
2023-01-17T11:14:40.960Z,15.9
2023-01-17T11:15:43.577Z,15.9
2023-01-17T11:16:46.296Z,15.9
2023-01-17T11:17:48.539Z,15.9
2023-01-17T11:18:50.825Z,15.9
2023-01-17T11:19:52.805Z,15.8
2023-01-17T11:20:55.307Z,16
2023-01-17T11:21:57.818Z,16
2023-01-17T11:23:00.369Z,15.9
2023-01-17T11:24:02.340Z,15.9
2023-01-17T11:25:04.620Z,15.9
2023-01-17T11:26:07.158Z,15.9
2023-01-17T11:27:09.778Z,15.9
2023-01-17T11:28:12.286Z,16
2023-01-17T11:29:14.257Z,16
2023-01-17T11:30:17.074Z,16
2023-01-17T11:31:19.317Z,15.9
2023-01-17T11:32:22.046Z,15.9
2023-01-17T11:33:24.353Z,16
2023-01-17T11:34:26.871Z,15.9
2023-01-17T11:35:29.149Z,16
2023-01-17T11:36:31.673Z,15.9
2023-01-17T11:37:34.018Z,15.9
2023-01-17T11:38:36.565Z,16
2023-01-17T11:39:38.561Z,15.9
2023-01-17T11:40:40.549Z,15.9
2023-01-17T11:41:43.108Z,16
2023-01-17T11:42:45.377Z,15.9
2023-01-17T11:43:47.879Z,15.8
2023-01-17T11:44:50.441Z,16.1
2023-01-17T11:45:53.148Z,15.9
2023-01-17T11:46:55.855Z,15.9
2023-01-17T11:47:58.091Z,16
2023-01-17T11:49:00.148Z,16.1
2023-01-17T11:50:02.756Z,15.8
2023-01-17T11:51:05.000Z,15.9
2023-01-17T11:52:07.523Z,15.9
2023-01-17T11:53:10.017Z,15.9
2023-01-17T11:54:11.988Z,16
2023-01-17T11:55:14.208Z,16
2023-01-17T11:56:16.228Z,15.8
2023-01-17T11:57:18.152Z,15.9
2023-01-17T11:58:20.442Z,15.9
2023-01-17T11:59:22.787Z,15.9
2023-01-17T12:00:24.792Z,15.9
2023-01-17T12:01:27.372Z,15.9
2023-01-17T12:02:29.640Z,15.9
2023-01-17T12:03:31.933Z,16
2023-01-17T12:05:39.047Z,15.8
2023-01-17T12:07:46.009Z,15.9
2023-01-17T12:08:48.271Z,15.9
2023-01-17T12:09:50.510Z,16
2023-01-17T12:10:53.151Z,15.9
2023-01-17T12:11:55.445Z,16
2023-01-17T12:12:57.691Z,16.1
2023-01-17T12:13:59.965Z,16
2023-01-17T12:15:02.671Z,16
2023-01-17T12:16:05.377Z,15.9
2023-01-17T12:17:08.209Z,15.9
2023-01-17T12:18:10.809Z,15.9
2023-01-17T12:19:13.334Z,15.8
2023-01-17T12:20:15.594Z,15.9
2023-01-17T12:21:17.880Z,15.9
2023-01-17T12:22:20.402Z,15.9
2023-01-17T12:23:22.676Z,15.9
2023-01-17T12:24:24.672Z,16
2023-01-17T12:25:27.056Z,15.9
2023-01-17T12:26:29.061Z,15.9
2023-01-17T12:27:31.330Z,15.9
2023-01-17T12:28:33.920Z,15.8
2023-01-17T12:29:36.180Z,16
2023-01-17T12:30:37.602Z,15.9
2023-01-17T12:31:40.045Z,15.9
2023-01-17T12:32:42.738Z,15.9
2023-01-17T12:33:45.080Z,15.8
2023-01-17T12:34:47.079Z,15.9
2023-01-17T12:35:49.602Z,15.8
2023-01-17T12:36:52.194Z,15.9
2023-01-17T12:38:59.411Z,15.9
2023-01-17T12:40:01.962Z,15.8
2023-01-17T12:41:04.262Z,15.9
2023-01-17T12:42:06.542Z,15.9
2023-01-17T12:43:08.802Z,15.9
2023-01-17T12:44:11.032Z,16
2023-01-17T12:45:13.599Z,15.8
2023-01-17T12:46:15.910Z,15.8
2023-01-17T12:47:18.376Z,15.9
2023-01-17T12:48:20.943Z,15.9
2023-01-17T12:49:22.922Z,16
2023-01-17T12:50:25.462Z,15.9
2023-01-17T12:51:27.449Z,16
2023-01-17T12:52:29.968Z,15.8
2023-01-17T12:53:32.196Z,15.8
2023-01-17T12:54:34.718Z,16
2023-01-17T12:55:37.141Z,15.8
2023-01-17T12:56:39.109Z,15.8
2023-01-17T12:57:41.629Z,15.9
2023-01-17T12:58:44.148Z,15.9
2023-01-17T12:59:46.113Z,15.8
2023-01-17T13:00:48.806Z,15.8
2023-01-17T13:01:51.336Z,15.9
2023-01-17T13:02:54.097Z,15.9
2023-01-17T13:03:58.301Z,15.9
2023-01-17T13:05:00.806Z,15.8
2023-01-17T13:06:03.354Z,15.8
2023-01-17T13:07:05.901Z,16
2023-01-17T13:08:08.194Z,15.9
2023-01-17T13:09:10.451Z,16
2023-01-17T13:10:12.369Z,15.8
2023-01-17T13:11:14.633Z,15.9
2023-01-17T13:12:17.244Z,15.9
2023-01-17T13:13:19.237Z,16
2023-01-17T13:14:21.237Z,15.9
2023-01-17T13:15:23.754Z,15.8
2023-01-17T13:16:26.151Z,15.9
2023-01-17T13:17:28.889Z,15.9
2023-01-17T13:18:31.447Z,15.8
2023-01-17T13:19:34.081Z,15.8
2023-01-17T13:20:36.368Z,15.9
2023-01-17T13:21:38.880Z,15.9
2023-01-17T13:22:41.440Z,15.8
2023-01-17T13:23:43.973Z,15.8
2023-01-17T13:24:45.949Z,15.9
2023-01-17T13:25:48.674Z,15.9
2023-01-17T13:26:50.987Z,15.8
2023-01-17T13:27:53.279Z,15.9
2023-01-17T13:28:55.798Z,15.9
2023-01-17T13:29:58.085Z,15.8
2023-01-17T13:31:00.624Z,15.9
2023-01-17T13:32:03.227Z,15.8
2023-01-17T13:33:05.798Z,15.9
2023-01-17T13:34:08.116Z,15.7
2023-01-17T13:35:10.722Z,15.9
2023-01-17T13:36:12.730Z,15.8
2023-01-17T13:37:15.235Z,15.9
2023-01-17T13:38:17.497Z,15.8
2023-01-17T13:39:19.188Z,15.9
2023-01-17T13:40:21.905Z,15.8
2023-01-17T13:41:24.468Z,15.9
2023-01-17T13:42:26.427Z,16
2023-01-17T13:43:28.684Z,15.9
2023-01-17T13:44:30.637Z,16
2023-01-17T13:45:33.371Z,15.9
2023-01-17T13:46:36.176Z,15.9
2023-01-17T13:47:38.761Z,15.9
2023-01-17T13:48:41.471Z,15.8
2023-01-17T13:49:44.056Z,15.9
2023-01-17T13:50:46.732Z,16
2023-01-17T13:51:49.390Z,16
2023-01-17T13:52:51.942Z,15.9
2023-01-17T13:53:54.499Z,15.8
2023-01-17T13:54:56.544Z,15.9
2023-01-17T13:55:58.513Z,15.9
2023-01-17T13:57:01.011Z,15.9
2023-01-17T13:58:02.969Z,15.8
2023-01-17T13:59:05.532Z,15.9
2023-01-17T14:00:08.093Z,15.9
2023-01-17T14:01:10.889Z,15.9
2023-01-17T14:02:13.636Z,15.9
2023-01-17T14:03:16.260Z,15.8
2023-01-17T14:04:18.376Z,15.8
2023-01-17T14:05:20.926Z,15.8
2023-01-17T14:07:28.220Z,15.9
2023-01-17T14:08:30.476Z,15.8